Create Tblcommutelog Verified Points Advance Search
| # | Trip ID | Id Commuter | Trip Date | Trip Num | Current Lat | Current Lng | Delta Distance | Current Time | Activity | Activity Confidence | Current Speed | |
|---|---|---|---|---|---|---|---|---|---|---|---|---|
| 68881 | 250513_779684_16420702_0641 | 779684 | (not set) | (not set) | 39.33296703232 | -77.014323920943 | 9.0803 | 2025-05-13 10:55:13.858 | in_vehicle | 100 | 8.5652722022048 | |
| 68882 | 250513_785007_6461772_0625 | 785007 | (not set) | (not set) | 38.880182646969 | -77.139787834983 | 15.6073 | 2025-05-13 10:55:14.312 | in_vehicle | 100 | 9.942153119887 | |
| 68883 | 250513_784608_16458763_0632 | 784608 | (not set) | (not set) | 38.807355371812 | -77.099543085839 | 10.8315 | 2025-05-13 10:55:19.157 | in_vehicle | 100 | 12.230994125904 | |
| 68884 | 250513_714474_16499526_0645 | 714474 | (not set) | (not set) | 39.359536727222 | -76.680119554173 | 1.4407 | 2025-05-13 10:55:20.215 | in_vehicle | 100 | 4.0725276493782 | |
| 68885 | 250513_113832_16457490_0626 | 113832 | (not set) | (not set) | 39.017474751136 | -77.101822785548 | 10.618 | 2025-05-13 10:55:23.215 | in_vehicle | 100 | 10.165672749381 | |
| 68886 | 250513_782322_16504834_0652 | 782322 | (not set) | (not set) | 39.172408856666 | -77.283821893983 | 0.3229 | 2025-05-13 10:55:23.933 | unknown | 100 | 7.9796507729309 | |
| 68887 | 250513_782322_16504834_0652 | 782322 | (not set) | (not set) | 39.1717675 | -77.283810333333 | 0.3672 | 2025-05-13 10:55:24.922 | unknown | 100 | 8.0735290173183 | |
| 68888 | 250513_784753_16513860_0654 | 784753 | (not set) | (not set) | 38.9360135 | -77.3036696 | 0.1314 | 2025-05-13 10:55:26.217 | in_vehicle | 100 | 4.1351131456364 | |
| 68889 | 250513_785007_6461772_0625 | 785007 | (not set) | (not set) | 38.879399892127 | -77.136942504406 | 15.77 | 2025-05-13 10:55:26.261 | in_vehicle | 100 | 9.4951138608993 | |
| 68890 | 250513_784608_16458763_0632 | 784608 | (not set) | (not set) | 38.806627464779 | -77.096114817968 | 11.0232 | 2025-05-13 10:55:30.191 | in_vehicle | 100 | 12.557332784965 | |
| 68891 | 250513_779684_16420702_0641 | 779684 | (not set) | (not set) | 39.330736154851 | -77.014930462412 | 9.2375 | 2025-05-13 10:55:30.294 | in_vehicle | 100 | 5.6550466261947 | |
| 68892 | 250513_738572_16489587_0653 | 738572 | (not set) | (not set) | 38.959545134998 | -76.652132272203 | 0 | 2025-05-13 10:53:52.392 | unknown | 100 | 0.0044703925898772 | |
| 68893 | 250513_738572_16489587_0653 | 738572 | (not set) | (not set) | 38.959545134998 | -76.652132272203 | 0 | 2025-05-13 10:53:52.457 | in_vehicle | 100 | 0.0044703925898772 | |
| 68894 | 250513_781336_16450333_0647 | 781336 | (not set) | (not set) | 39.008957971855 | -77.491027750147 | 1.4699 | 2025-05-13 10:53:56.417 | in_vehicle | 100 | 6.1333786333116 | |
| 68895 | 250513_714474_16499526_0645 | 714474 | (not set) | (not set) | 39.362567118868 | -76.687307027989 | 0.9641 | 2025-05-13 10:54:01.219 | in_vehicle | 100 | 5.7980991890708 | |
| 68896 | 250513_779684_16420702_0641 | 779684 | (not set) | (not set) | 39.339558583522 | -77.013236631236 | 8.6218 | 2025-05-13 10:54:02.925 | in_vehicle | 100 | 6.3300759072662 | |
| 68897 | 250513_785007_6461772_0625 | 785007 | (not set) | (not set) | 38.885568513753 | -77.155920388304 | 14.6615 | 2025-05-13 10:54:04.354 | in_vehicle | 100 | 2.9817518574481 | |
| 68898 | 250513_606167_0_0602 | 606167 | (not set) | (not set) | 38.884024863262 | -77.062733585103 | 16.5625 | 2025-05-13 10:54:09.283 | in_vehicle | 100 | 3.679133101469 | |
| 68899 | 250513_785007_6461772_0625 | 785007 | (not set) | (not set) | 38.88518784669 | -77.154785032996 | 14.7281 | 2025-05-13 10:54:12.592 | in_vehicle | 100 | 7.8142462471054 | |
| 68900 | 250513_714474_16499526_0645 | 714474 | (not set) | (not set) | 39.362023130641 | -76.685086736872 | 1.0888 | 2025-05-13 10:54:16.29 | in_vehicle | 100 | 6.2138456999294 |